Aérodrome :
LOGIN :

S'inscrire | Disclaimer

   EN    FR    IT 

 










Légende :    VFR   VFR Marginal   IFR   IFR Intensif   IFR Très Intensif
Visi : 
Plafond : 
>= 8 km
>= 3000ft
5 à 8 km
1000 à 3000 ft
1500m à 5 km
500 à 1000 ft
800 à 1500m
200 à 500 ft
< 800m
< 200 ft
Symboles :   Orages  Brouillard  Fortes neiges  Fortes précipitations  Vent > 20 kt
SIGMETs :   Divers  Orages  Givrage  Turbulence  Onde Orograph.  Cendres Volcan.






- Altitude de l'aérodrome : 616 ft
- Code IATA : PUF


LFBP - Pau

DERNIER METAR :
  • 171500Z AUTO 24017KT 9999 -RA BKN028/// BKN036/// BKN045/// ///CB 10/06 Q1029 TEMPO 28020G35KT 3000 SHRA

METARs EXPIRÉS :
  • 171430Z AUTO 22009KT 190V250 9999 BKN028/// BKN035/// BKN045/// ///CB 11/07 Q1028 TEMPO 28020G35KT 3000 SHRA
  • 171400Z AUTO 22008KT 9999 SCT032/// BKN042/// BKN049/// ///TCU 10/08 Q1029 TEMPO 28020G35KT 3000 SHRA BKN020TCU FEW025CB
  • 171330Z AUTO 23010KT 9999 -RA FEW016/// SCT027/// BKN033/// ///TCU 08/07 Q1029 TEMPO 28020G35KT 3000 SHRA BKN020TCU FEW025CB
  • 171300Z AUTO 23009KT 9999 SCT037/// BKN047/// BKN058/// ///CB 08/06 Q1029 TEMPO 28020G35KT 3000 SHRA

TAF TAF LFBP
Valide du 17 à 12h jusqu'au 18 à 12h UTC


171100Z 1712/1812 26010KT 9999 BKN030
PROB40
TEMPO 1712/1718 28020G35KT 3000 SHRA BKN020TCU FEW025CB
PROB30
TEMPO 1718/1721 4000 SHRA BKN020TCU
BECMG 1721/1723 16005KT CAVOK
BECMG 1810/1812 10010KT



MET'MAP, la Météo Aéronautique d'un coup d'oeil ! - Copyright ORBIFLY Décembre 2007 - Disclaimer

ORBIFLY MET'MAP TEAM :

Programmation & Développement : Alexandra Zaïnal
Sur une idée originale de : Baudouin d'Aumeries
Assistance à la programmation : Marc-Olivier Méhu
Soutien technique & logistique : Manuel Goepfert

Contact : metmap@orbifly.com




SOURCES & CREDITS :

   NOAA